sensor_id;sensor_type;location;lat;lon;timestamp;temperature;humidity
20973;DHT22;10645;52.370;13.314;2023-12-14T00:01:22;4.50;99.90
20973;DHT22;10645;52.370;13.314;2023-12-14T00:03:48;4.50;99.90
20973;DHT22;10645;52.370;13.314;2023-12-14T00:06:14;4.50;99.90
20973;DHT22;10645;52.370;13.314;2023-12-14T00:08:41;4.50;99.90
20973;DHT22;10645;52.370;13.314;2023-12-14T00:11:09;4.50;99.90
20973;DHT22;10645;52.370;13.314;2023-12-14T00:13:35;4.40;99.90
20973;DHT22;10645;52.370;13.314;2023-12-14T00:16:02;4.50;99.90
20973;DHT22;10645;52.370;13.314;2023-12-14T00:18:28;4.50;99.90
20973;DHT22;10645;52.370;13.314;2023-12-14T00:20:54;4.50;99.90
20973;DHT22;10645;52.370;13.314;2023-12-14T00:23:21;4.50;99.90
20973;DHT22;10645;52.370;13.314;2023-12-14T00:25:47;4.40;99.90
20973;DHT22;10645;52.370;13.314;2023-12-14T00:28:13;4.40;99.90
20973;DHT22;10645;52.370;13.314;2023-12-14T00:30:39;4.40;99.90
20973;DHT22;10645;52.370;13.314;2023-12-14T00:33:05;4.40;99.90
20973;DHT22;10645;52.370;13.314;2023-12-14T00:35:31;4.40;99.90
20973;DHT22;10645;52.370;13.314;2023-12-14T00:37:57;4.40;99.90
20973;DHT22;10645;52.370;13.314;2023-12-14T00:40:23;4.40;99.90
20973;DHT22;10645;52.370;13.314;2023-12-14T00:42:51;4.40;99.90
20973;DHT22;10645;52.370;13.314;2023-12-14T00:45:17;4.40;99.90
20973;DHT22;10645;52.370;13.314;2023-12-14T00:47:43;4.40;99.90
20973;DHT22;10645;52.370;13.314;2023-12-14T00:50:09;4.40;99.90
20973;DHT22;10645;52.370;13.314;2023-12-14T00:52:35;4.40;99.90
20973;DHT22;10645;52.370;13.314;2023-12-14T00:55:02;4.40;99.90
20973;DHT22;10645;52.370;13.314;2023-12-14T00:57:28;4.40;99.90
20973;DHT22;10645;52.370;13.314;2023-12-14T00:59:54;4.30;99.90
20973;DHT22;10645;52.370;13.314;2023-12-14T01:02:20;4.30;99.90
20973;DHT22;10645;52.370;13.314;2023-12-14T01:04:46;4.30;99.90
20973;DHT22;10645;52.370;13.314;2023-12-14T01:07:12;4.30;99.90
20973;DHT22;10645;52.370;13.314;2023-12-14T01:09:38;4.30;99.90
20973;DHT22;10645;52.370;13.314;2023-12-14T01:12:05;4.30;99.90
20973;DHT22;10645;52.370;13.314;2023-12-14T01:14:31;4.20;99.90
20973;DHT22;10645;52.370;13.314;2023-12-14T01:16:57;4.20;99.90
20973;DHT22;10645;52.370;13.314;2023-12-14T01:19:23;4.20;99.90
20973;DHT22;10645;52.370;13.314;2023-12-14T01:21:51;4.20;99.90
20973;DHT22;10645;52.370;13.314;2023-12-14T01:24:17;4.10;99.90
20973;DHT22;10645;52.370;13.314;2023-12-14T01:26:43;4.10;99.90
20973;DHT22;10645;52.370;13.314;2023-12-14T01:29:09;4.10;99.90
20973;DHT22;10645;52.370;13.314;2023-12-14T01:31:37;4.00;99.90
20973;DHT22;10645;52.370;13.314;2023-12-14T01:34:03;4.00;99.90
20973;DHT22;10645;52.370;13.314;2023-12-14T01:36:29;4.00;99.90
20973;DHT22;10645;52.370;13.314;2023-12-14T01:38:55;3.90;99.90
20973;DHT22;10645;52.370;13.314;2023-12-14T01:41:21;4.00;99.90
20973;DHT22;10645;52.370;13.314;2023-12-14T01:43:47;4.00;99.90
20973;DHT22;10645;52.370;13.314;2023-12-14T01:46:13;4.00;99.90
20973;DHT22;10645;52.370;13.314;2023-12-14T01:48:41;3.90;99.90
20973;DHT22;10645;52.370;13.314;2023-12-14T01:51:07;3.90;99.90
20973;DHT22;10645;52.370;13.314;2023-12-14T01:53:33;3.90;99.90
20973;DHT22;10645;52.370;13.314;2023-12-14T01:55:59;3.90;99.90
20973;DHT22;10645;52.370;13.314;2023-12-14T01:58:25;3.90;99.90
20973;DHT22;10645;52.370;13.314;2023-12-14T02:01:05;3.90;99.90
20973;DHT22;10645;52.370;13.314;2023-12-14T02:03:34;3.90;99.90
20973;DHT22;10645;52.370;13.314;2023-12-14T02:06:01;3.90;99.90
20973;DHT22;10645;52.370;13.314;2023-12-14T02:08:28;3.90;99.90
20973;DHT22;10645;52.370;13.314;2023-12-14T02:10:55;3.90;99.90
20973;DHT22;10645;52.370;13.314;2023-12-14T02:13:21;3.90;99.90
20973;DHT22;10645;52.370;13.314;2023-12-14T02:15:47;3.90;99.90
20973;DHT22;10645;52.370;13.314;2023-12-14T02:18:13;3.80;99.90
20973;DHT22;10645;52.370;13.314;2023-12-14T02:20:39;3.90;99.90
20973;DHT22;10645;52.370;13.314;2023-12-14T02:23:05;3.90;99.90
20973;DHT22;10645;52.370;13.314;2023-12-14T02:25:31;3.90;99.90
20973;DHT22;10645;52.370;13.314;2023-12-14T02:27:58;3.90;99.90
20973;DHT22;10645;52.370;13.314;2023-12-14T02:30:24;3.90;99.90
20973;DHT22;10645;52.370;13.314;2023-12-14T02:32:50;3.80;99.90
20973;DHT22;10645;52.370;13.314;2023-12-14T02:35:16;3.80;99.90
20973;DHT22;10645;52.370;13.314;2023-12-14T02:37:44;3.80;99.90
20973;DHT22;10645;52.370;13.314;2023-12-14T02:40:10;3.80;99.90
20973;DHT22;10645;52.370;13.314;2023-12-14T02:42:37;3.70;99.90
20973;DHT22;10645;52.370;13.314;2023-12-14T02:45:03;3.70;99.90
20973;DHT22;10645;52.370;13.314;2023-12-14T02:47:30;3.70;99.90
20973;DHT22;10645;52.370;13.314;2023-12-14T02:49:56;3.70;99.90
20973;DHT22;10645;52.370;13.314;2023-12-14T02:52:22;3.70;99.90
20973;DHT22;10645;52.370;13.314;2023-12-14T02:54:48;3.60;99.90
20973;DHT22;10645;52.370;13.314;2023-12-14T02:57:14;3.60;99.90
20973;DHT22;10645;52.370;13.314;2023-12-14T02:59:40;3.60;99.90
20973;DHT22;10645;52.370;13.314;2023-12-14T03:02:06;3.50;99.90
20973;DHT22;10645;52.370;13.314;2023-12-14T03:04:32;3.50;99.90
20973;DHT22;10645;52.370;13.314;2023-12-14T03:06:58;3.50;99.90
20973;DHT22;10645;52.370;13.314;2023-12-14T03:09:28;3.50;99.90
20973;DHT22;10645;52.370;13.314;2023-12-14T03:11:55;3.50;99.90
20973;DHT22;10645;52.370;13.314;2023-12-14T03:14:21;3.40;99.90
20973;DHT22;10645;52.370;13.314;2023-12-14T03:16:47;3.40;99.90
20973;DHT22;10645;52.370;13.314;2023-12-14T03:19:15;3.40;99.90
20973;DHT22;10645;52.370;13.314;2023-12-14T03:21:42;3.50;99.90
20973;DHT22;10645;52.370;13.314;2023-12-14T03:24:08;3.40;99.90
20973;DHT22;10645;52.370;13.314;2023-12-14T03:26:35;3.50;99.90
20973;DHT22;10645;52.370;13.314;2023-12-14T03:29:01;3.50;99.90
20973;DHT22;10645;52.370;13.314;2023-12-14T03:31:27;3.50;99.90
20973;DHT22;10645;52.370;13.314;2023-12-14T03:33:53;3.50;99.90
20973;DHT22;10645;52.370;13.314;2023-12-14T03:36:19;3.40;99.90
20973;DHT22;10645;52.370;13.314;2023-12-14T03:38:46;3.40;99.90
20973;DHT22;10645;52.370;13.314;2023-12-14T03:41:13;3.40;99.90
20973;DHT22;10645;52.370;13.314;2023-12-14T03:43:39;3.40;99.90
20973;DHT22;10645;52.370;13.314;2023-12-14T03:46:05;3.50;99.90
20973;DHT22;10645;52.370;13.314;2023-12-14T03:48:32;3.40;99.90
20973;DHT22;10645;52.370;13.314;2023-12-14T03:51:02;3.40;99.90
20973;DHT22;10645;52.370;13.314;2023-12-14T03:53:29;3.40;99.90
20973;DHT22;10645;52.370;13.314;2023-12-14T03:55:56;3.40;99.90
20973;DHT22;10645;52.370;13.314;2023-12-14T03:58:22;3.40;99.90
20973;DHT22;10645;52.370;13.314;2023-12-14T04:00:48;3.40;99.90
20973;DHT22;10645;52.370;13.314;2023-12-14T04:03:14;3.40;99.90
20973;DHT22;10645;52.370;13.314;2023-12-14T04:05:40;3.40;99.90
20973;DHT22;10645;52.370;13.314;2023-12-14T04:08:07;3.40;99.90
20973;DHT22;10645;52.370;13.314;2023-12-14T04:10:33;3.40;99.90
20973;DHT22;10645;52.370;13.314;2023-12-14T04:12:59;3.40;99.90
20973;DHT22;10645;52.370;13.314;2023-12-14T04:15:25;3.40;99.90
20973;DHT22;10645;52.370;13.314;2023-12-14T04:17:51;3.40;99.90
20973;DHT22;10645;52.370;13.314;2023-12-14T04:20:17;3.40;99.90
20973;DHT22;10645;52.370;13.314;2023-12-14T04:22:43;3.30;99.90
20973;DHT22;10645;52.370;13.314;2023-12-14T04:25:10;3.30;99.90
20973;DHT22;10645;52.370;13.314;2023-12-14T04:27:36;3.30;99.90
20973;DHT22;10645;52.370;13.314;2023-12-14T04:30:03;3.30;99.90
20973;DHT22;10645;52.370;13.314;2023-12-14T04:32:30;3.30;99.90
20973;DHT22;10645;52.370;13.314;2023-12-14T04:34:56;3.30;99.90
20973;DHT22;10645;52.370;13.314;2023-12-14T04:37:22;3.30;99.90
20973;DHT22;10645;52.370;13.314;2023-12-14T04:39:48;3.30;99.90
20973;DHT22;10645;52.370;13.314;2023-12-14T04:42:15;3.30;99.90
20973;DHT22;10645;52.370;13.314;2023-12-14T04:44:41;3.30;99.90
20973;DHT22;10645;52.370;13.314;2023-12-14T04:47:07;3.30;99.90
20973;DHT22;10645;52.370;13.314;2023-12-14T04:49:34;3.30;99.90
20973;DHT22;10645;52.370;13.314;2023-12-14T04:52:00;3.40;99.90
20973;DHT22;10645;52.370;13.314;2023-12-14T04:54:26;3.30;99.90
20973;DHT22;10645;52.370;13.314;2023-12-14T04:56:52;3.30;99.90
20973;DHT22;10645;52.370;13.314;2023-12-14T04:59:18;3.40;99.90
20973;DHT22;10645;52.370;13.314;2023-12-14T05:01:45;3.40;99.90
20973;DHT22;10645;52.370;13.314;2023-12-14T05:04:11;3.30;99.90
20973;DHT22;10645;52.370;13.314;2023-12-14T05:06:38;3.30;99.90
20973;DHT22;10645;52.370;13.314;2023-12-14T05:09:04;3.40;99.90
20973;DHT22;10645;52.370;13.314;2023-12-14T05:11:32;3.30;99.90
20973;DHT22;10645;52.370;13.314;2023-12-14T05:13:58;3.30;99.90
20973;DHT22;10645;52.370;13.314;2023-12-14T05:16:24;3.40;99.90
20973;DHT22;10645;52.370;13.314;2023-12-14T05:18:54;3.30;99.90
20973;DHT22;10645;52.370;13.314;2023-12-14T05:21:20;3.30;99.90
20973;DHT22;10645;52.370;13.314;2023-12-14T05:23:46;3.40;99.90
20973;DHT22;10645;52.370;13.314;2023-12-14T05:26:12;3.40;99.90
20973;DHT22;10645;52.370;13.314;2023-12-14T05:28:38;3.40;99.90
20973;DHT22;10645;52.370;13.314;2023-12-14T05:31:04;3.40;99.90
20973;DHT22;10645;52.370;13.314;2023-12-14T05:33:30;3.40;99.90
20973;DHT22;10645;52.370;13.314;2023-12-14T05:35:57;3.40;99.90
20973;DHT22;10645;52.370;13.314;2023-12-14T05:38:23;3.40;99.90
20973;DHT22;10645;52.370;13.314;2023-12-14T05:40:49;3.40;99.90
20973;DHT22;10645;52.370;13.314;2023-12-14T05:43:15;3.40;99.90
20973;DHT22;10645;52.370;13.314;2023-12-14T05:45:42;3.40;99.90
20973;DHT22;10645;52.370;13.314;2023-12-14T05:48:08;3.40;99.90
20973;DHT22;10645;52.370;13.314;2023-12-14T05:50:34;3.40;99.90
20973;DHT22;10645;52.370;13.314;2023-12-14T05:53:00;3.40;99.90
20973;DHT22;10645;52.370;13.314;2023-12-14T05:55:26;3.40;99.90
20973;DHT22;10645;52.370;13.314;2023-12-14T05:57:52;3.40;99.90
20973;DHT22;10645;52.370;13.314;2023-12-14T06:00:20;3.40;99.90
20973;DHT22;10645;52.370;13.314;2023-12-14T06:02:46;3.40;99.90
20973;DHT22;10645;52.370;13.314;2023-12-14T06:05:12;3.40;99.90
20973;DHT22;10645;52.370;13.314;2023-12-14T06:07:38;3.50;99.90
20973;DHT22;10645;52.370;13.314;2023-12-14T06:10:05;3.50;99.90
20973;DHT22;10645;52.370;13.314;2023-12-14T06:12:31;3.40;99.90
20973;DHT22;10645;52.370;13.314;2023-12-14T06:14:57;3.40;99.90
20973;DHT22;10645;52.370;13.314;2023-12-14T06:17:23;3.50;99.90
20973;DHT22;10645;52.370;13.314;2023-12-14T06:19:49;3.40;99.90
20973;DHT22;10645;52.370;13.314;2023-12-14T06:22:15;3.40;99.90
20973;DHT22;10645;52.370;13.314;2023-12-14T06:24:41;3.50;99.90
20973;DHT22;10645;52.370;13.314;2023-12-14T06:27:07;3.50;99.90
20973;DHT22;10645;52.370;13.314;2023-12-14T06:29:33;3.50;99.90
20973;DHT22;10645;52.370;13.314;2023-12-14T06:32:00;3.50;99.90
20973;DHT22;10645;52.370;13.314;2023-12-14T06:34:26;3.50;99.90
20973;DHT22;10645;52.370;13.314;2023-12-14T06:36:52;3.50;99.90
20973;DHT22;10645;52.370;13.314;2023-12-14T06:39:18;3.50;99.90
20973;DHT22;10645;52.370;13.314;2023-12-14T06:41:44;3.50;99.90
20973;DHT22;10645;52.370;13.314;2023-12-14T06:44:10;3.50;99.90
20973;DHT22;10645;52.370;13.314;2023-12-14T06:46:36;3.50;99.90
20973;DHT22;10645;52.370;13.314;2023-12-14T06:49:02;3.50;99.90
20973;DHT22;10645;52.370;13.314;2023-12-14T06:51:28;3.50;99.90
20973;DHT22;10645;52.370;13.314;2023-12-14T06:53:54;3.50;99.90
20973;DHT22;10645;52.370;13.314;2023-12-14T06:56:20;3.50;99.90
20973;DHT22;10645;52.370;13.314;2023-12-14T06:58:47;3.50;99.90
20973;DHT22;10645;52.370;13.314;2023-12-14T07:01:16;3.60;99.90
20973;DHT22;10645;52.370;13.314;2023-12-14T07:03:44;3.60;99.90
20973;DHT22;10645;52.370;13.314;2023-12-14T07:06:17;3.50;99.90
20973;DHT22;10645;52.370;13.314;2023-12-14T07:08:44;3.50;99.90
20973;DHT22;10645;52.370;13.314;2023-12-14T07:11:11;3.50;99.90
20973;DHT22;10645;52.370;13.314;2023-12-14T07:13:37;3.60;99.90
20973;DHT22;10645;52.370;13.314;2023-12-14T07:16:09;3.60;99.90
20973;DHT22;10645;52.370;13.314;2023-12-14T07:18:40;3.50;99.90
20973;DHT22;10645;52.370;13.314;2023-12-14T07:21:07;3.50;99.90
20973;DHT22;10645;52.370;13.314;2023-12-14T07:23:34;3.50;99.90
20973;DHT22;10645;52.370;13.314;2023-12-14T07:26:01;3.50;99.90
20973;DHT22;10645;52.370;13.314;2023-12-14T07:28:27;3.50;99.90
20973;DHT22;10645;52.370;13.314;2023-12-14T07:30:54;3.60;99.90
20973;DHT22;10645;52.370;13.314;2023-12-14T07:33:20;3.60;99.90
20973;DHT22;10645;52.370;13.314;2023-12-14T07:35:46;3.50;99.90
20973;DHT22;10645;52.370;13.314;2023-12-14T07:38:13;3.60;99.90
20973;DHT22;10645;52.370;13.314;2023-12-14T07:40:39;3.60;99.90
20973;DHT22;10645;52.370;13.314;2023-12-14T07:43:06;3.60;99.90
20973;DHT22;10645;52.370;13.314;2023-12-14T07:45:34;3.60;99.90
20973;DHT22;10645;52.370;13.314;2023-12-14T07:48:00;3.60;99.90
20973;DHT22;10645;52.370;13.314;2023-12-14T07:50:26;3.60;99.90
20973;DHT22;10645;52.370;13.314;2023-12-14T07:52:52;3.60;99.90
20973;DHT22;10645;52.370;13.314;2023-12-14T07:55:19;3.60;99.90
20973;DHT22;10645;52.370;13.314;2023-12-14T07:57:45;3.60;99.90
20973;DHT22;10645;52.370;13.314;2023-12-14T08:00:13;3.60;99.90
20973;DHT22;10645;52.370;13.314;2023-12-14T08:02:39;3.60;99.90
20973;DHT22;10645;52.370;13.314;2023-12-14T08:05:05;3.60;99.90
20973;DHT22;10645;52.370;13.314;2023-12-14T08:07:32;3.70;99.90
20973;DHT22;10645;52.370;13.314;2023-12-14T08:09:59;3.70;99.90
20973;DHT22;10645;52.370;13.314;2023-12-14T08:12:25;3.70;99.90
20973;DHT22;10645;52.370;13.314;2023-12-14T08:14:51;3.70;99.90
20973;DHT22;10645;52.370;13.314;2023-12-14T08:17:18;3.70;99.90
20973;DHT22;10645;52.370;13.314;2023-12-14T08:19:44;3.70;99.90
20973;DHT22;10645;52.370;13.314;2023-12-14T08:22:11;3.70;99.90
20973;DHT22;10645;52.370;13.314;2023-12-14T08:24:40;3.80;99.90
20973;DHT22;10645;52.370;13.314;2023-12-14T08:27:06;3.80;99.90
20973;DHT22;10645;52.370;13.314;2023-12-14T08:29:32;3.80;99.90
20973;DHT22;10645;52.370;13.314;2023-12-14T08:31:58;3.80;99.90
20973;DHT22;10645;52.370;13.314;2023-12-14T08:34:26;3.80;99.90
20973;DHT22;10645;52.370;13.314;2023-12-14T08:36:52;3.80;99.90
20973;DHT22;10645;52.370;13.314;2023-12-14T08:39:18;3.80;99.90
20973;DHT22;10645;52.370;13.314;2023-12-14T08:41:45;3.70;99.90
20973;DHT22;10645;52.370;13.314;2023-12-14T08:44:13;3.80;99.90
20973;DHT22;10645;52.370;13.314;2023-12-14T08:46:45;3.70;99.90
20973;DHT22;10645;52.370;13.314;2023-12-14T08:49:12;3.70;99.90
20973;DHT22;10645;52.370;13.314;2023-12-14T08:51:39;3.80;99.90
20973;DHT22;10645;52.370;13.314;2023-12-14T08:54:05;3.80;99.90
20973;DHT22;10645;52.370;13.314;2023-12-14T08:56:31;3.70;99.90
20973;DHT22;10645;52.370;13.314;2023-12-14T08:58:57;3.70;99.90
20973;DHT22;10645;52.370;13.314;2023-12-14T09:01:25;3.80;99.90
20973;DHT22;10645;52.370;13.314;2023-12-14T09:03:51;3.80;99.90
20973;DHT22;10645;52.370;13.314;2023-12-14T09:06:17;3.80;99.90
20973;DHT22;10645;52.370;13.314;2023-12-14T09:08:44;3.80;99.90
20973;DHT22;10645;52.370;13.314;2023-12-14T09:11:10;3.80;99.90
20973;DHT22;10645;52.370;13.314;2023-12-14T09:13:36;3.80;99.90
20973;DHT22;10645;52.370;13.314;2023-12-14T09:16:04;3.80;99.90
20973;DHT22;10645;52.370;13.314;2023-12-14T09:18:30;3.90;99.90
20973;DHT22;10645;52.370;13.314;2023-12-14T09:20:56;3.90;99.90
20973;DHT22;10645;52.370;13.314;2023-12-14T09:23:22;3.90;99.90
20973;DHT22;10645;52.370;13.314;2023-12-14T09:25:48;3.90;99.90
20973;DHT22;10645;52.370;13.314;2023-12-14T09:28:15;3.90;99.90
20973;DHT22;10645;52.370;13.314;2023-12-14T09:30:41;3.90;99.90
20973;DHT22;10645;52.370;13.314;2023-12-14T09:33:08;3.90;99.90
20973;DHT22;10645;52.370;13.314;2023-12-14T09:35:35;3.90;99.90
20973;DHT22;10645;52.370;13.314;2023-12-14T09:38:06;3.90;99.90
20973;DHT22;10645;52.370;13.314;2023-12-14T09:40:32;3.90;99.90
20973;DHT22;10645;52.370;13.314;2023-12-14T09:42:58;3.90;99.90
20973;DHT22;10645;52.370;13.314;2023-12-14T09:45:28;3.90;99.90
20973;DHT22;10645;52.370;13.314;2023-12-14T09:47:57;3.90;99.90
20973;DHT22;10645;52.370;13.314;2023-12-14T09:50:23;3.80;99.90
20973;DHT22;10645;52.370;13.314;2023-12-14T09:52:50;3.90;99.90
20973;DHT22;10645;52.370;13.314;2023-12-14T09:55:16;3.90;99.90
20973;DHT22;10645;52.370;13.314;2023-12-14T09:57:42;3.90;99.90
20973;DHT22;10645;52.370;13.314;2023-12-14T10:00:09;3.90;99.90
20973;DHT22;10645;52.370;13.314;2023-12-14T10:02:37;3.90;99.90
20973;DHT22;10645;52.370;13.314;2023-12-14T10:05:06;3.90;99.90
20973;DHT22;10645;52.370;13.314;2023-12-14T10:07:42;3.90;99.90
20973;DHT22;10645;52.370;13.314;2023-12-14T10:10:12;3.90;99.90
20973;DHT22;10645;52.370;13.314;2023-12-14T10:13:00;4.00;99.90
20973;DHT22;10645;52.370;13.314;2023-12-14T10:15:26;3.90;99.90
20973;DHT22;10645;52.370;13.314;2023-12-14T10:17:53;4.00;99.90
20973;DHT22;10645;52.370;13.314;2023-12-14T10:20:21;4.00;99.90
20973;DHT22;10645;52.370;13.314;2023-12-14T10:22:53;4.00;99.90
20973;DHT22;10645;52.370;13.314;2023-12-14T10:25:19;4.00;99.90
20973;DHT22;10645;52.370;13.314;2023-12-14T10:27:52;4.10;99.90
20973;DHT22;10645;52.370;13.314;2023-12-14T10:30:21;4.00;99.90
20973;DHT22;10645;52.370;13.314;2023-12-14T10:32:48;4.00;99.90
20973;DHT22;10645;52.370;13.314;2023-12-14T10:35:15;4.10;99.90
20973;DHT22;10645;52.370;13.314;2023-12-14T10:37:43;4.10;99.90
20973;DHT22;10645;52.370;13.314;2023-12-14T10:40:13;4.10;99.90
20973;DHT22;10645;52.370;13.314;2023-12-14T10:42:43;4.10;99.90
20973;DHT22;10645;52.370;13.314;2023-12-14T10:45:29;4.10;99.90
20973;DHT22;10645;52.370;13.314;2023-12-14T10:47:59;4.10;99.90
20973;DHT22;10645;52.370;13.314;2023-12-14T10:50:29;4.10;99.90
20973;DHT22;10645;52.370;13.314;2023-12-14T10:52:59;4.10;99.90
20973;DHT22;10645;52.370;13.314;2023-12-14T10:55:37;4.10;99.90
20973;DHT22;10645;52.370;13.314;2023-12-14T10:58:04;4.10;99.90
20973;DHT22;10645;52.370;13.314;2023-12-14T11:00:31;4.00;99.90
20973;DHT22;10645;52.370;13.314;2023-12-14T11:02:59;4.10;99.90
20973;DHT22;10645;52.370;13.314;2023-12-14T11:05:28;4.00;99.90
20973;DHT22;10645;52.370;13.314;2023-12-14T11:08:02;4.00;99.90
20973;DHT22;10645;52.370;13.314;2023-12-14T11:10:40;4.10;99.90
20973;DHT22;10645;52.370;13.314;2023-12-14T11:13:10;4.00;99.90
20973;DHT22;10645;52.370;13.314;2023-12-14T11:15:47;4.10;99.90
20973;DHT22;10645;52.370;13.314;2023-12-14T11:23:15;4.20;99.90
20973;DHT22;10645;52.370;13.314;2023-12-14T11:25:43;4.20;99.90
20973;DHT22;10645;52.370;13.314;2023-12-14T11:28:10;4.20;99.90
20973;DHT22;10645;52.370;13.314;2023-12-14T11:30:36;4.30;99.90
20973;DHT22;10645;52.370;13.314;2023-12-14T11:33:03;4.30;99.90
20973;DHT22;10645;52.370;13.314;2023-12-14T11:35:30;4.30;99.90
20973;DHT22;10645;52.370;13.314;2023-12-14T11:37:56;4.30;99.90
20973;DHT22;10645;52.370;13.314;2023-12-14T11:40:25;4.30;99.90
20973;DHT22;10645;52.370;13.314;2023-12-14T11:42:59;4.30;99.90
20973;DHT22;10645;52.370;13.314;2023-12-14T11:45:26;4.30;99.90
20973;DHT22;10645;52.370;13.314;2023-12-14T11:47:52;4.40;99.90
20973;DHT22;10645;52.370;13.314;2023-12-14T11:50:18;4.40;99.90
20973;DHT22;10645;52.370;13.314;2023-12-14T11:52:44;4.40;99.90
20973;DHT22;10645;52.370;13.314;2023-12-14T11:55:11;4.40;99.90
20973;DHT22;10645;52.370;13.314;2023-12-14T11:57:37;4.40;99.90
20973;DHT22;10645;52.370;13.314;2023-12-14T12:00:04;4.30;99.90
20973;DHT22;10645;52.370;13.314;2023-12-14T12:02:32;4.30;99.90
20973;DHT22;10645;52.370;13.314;2023-12-14T12:05:00;4.30;99.90
20973;DHT22;10645;52.370;13.314;2023-12-14T12:07:26;4.20;99.90
20973;DHT22;10645;52.370;13.314;2023-12-14T12:09:52;4.20;99.90
20973;DHT22;10645;52.370;13.314;2023-12-14T12:12:18;4.20;99.90
20973;DHT22;10645;52.370;13.314;2023-12-14T12:14:44;4.20;99.90
20973;DHT22;10645;52.370;13.314;2023-12-14T12:17:10;4.10;99.90
20973;DHT22;10645;52.370;13.314;2023-12-14T12:19:37;4.10;99.90
20973;DHT22;10645;52.370;13.314;2023-12-14T12:22:03;4.10;99.90
20973;DHT22;10645;52.370;13.314;2023-12-14T12:24:30;4.10;99.90
20973;DHT22;10645;52.370;13.314;2023-12-14T12:26:56;4.10;99.90
20973;DHT22;10645;52.370;13.314;2023-12-14T12:29:23;4.10;99.90
20973;DHT22;10645;52.370;13.314;2023-12-14T12:31:49;4.10;99.90
20973;DHT22;10645;52.370;13.314;2023-12-14T12:34:15;4.20;99.90
20973;DHT22;10645;52.370;13.314;2023-12-14T12:36:41;4.20;99.90
20973;DHT22;10645;52.370;13.314;2023-12-14T12:39:07;4.10;99.90
20973;DHT22;10645;52.370;13.314;2023-12-14T12:41:35;4.10;99.90
20973;DHT22;10645;52.370;13.314;2023-12-14T12:44:04;4.20;99.90
20973;DHT22;10645;52.370;13.314;2023-12-14T12:46:34;4.20;99.90
20973;DHT22;10645;52.370;13.314;2023-12-14T12:49:05;4.20;99.90
20973;DHT22;10645;52.370;13.314;2023-12-14T12:51:31;4.20;99.90
20973;DHT22;10645;52.370;13.314;2023-12-14T12:53:58;4.20;99.90
20973;DHT22;10645;52.370;13.314;2023-12-14T12:56:27;4.20;99.90
20973;DHT22;10645;52.370;13.314;2023-12-14T12:58:54;4.10;99.90
20973;DHT22;10645;52.370;13.314;2023-12-14T13:01:23;4.20;99.90
20973;DHT22;10645;52.370;13.314;2023-12-14T13:03:53;4.20;99.90
20973;DHT22;10645;52.370;13.314;2023-12-14T13:06:21;4.10;99.90
20973;DHT22;10645;52.370;13.314;2023-12-14T13:08:47;4.10;99.90
20973;DHT22;10645;52.370;13.314;2023-12-14T13:11:14;4.10;99.90
20973;DHT22;10645;52.370;13.314;2023-12-14T13:13:40;4.10;99.90
20973;DHT22;10645;52.370;13.314;2023-12-14T13:16:07;4.10;99.90
20973;DHT22;10645;52.370;13.314;2023-12-14T13:18:33;4.20;99.90
20973;DHT22;10645;52.370;13.314;2023-12-14T13:20:59;4.10;99.90
20973;DHT22;10645;52.370;13.314;2023-12-14T13:23:25;4.20;99.90
20973;DHT22;10645;52.370;13.314;2023-12-14T13:25:51;4.20;99.90
20973;DHT22;10645;52.370;13.314;2023-12-14T13:28:18;4.20;99.90
20973;DHT22;10645;52.370;13.314;2023-12-14T13:30:44;4.20;99.90
20973;DHT22;10645;52.370;13.314;2023-12-14T13:33:10;4.20;99.90
20973;DHT22;10645;52.370;13.314;2023-12-14T13:35:38;4.10;99.90
20973;DHT22;10645;52.370;13.314;2023-12-14T13:38:04;4.20;99.90
20973;DHT22;10645;52.370;13.314;2023-12-14T13:40:30;4.10;99.90
20973;DHT22;10645;52.370;13.314;2023-12-14T13:42:56;4.10;99.90
20973;DHT22;10645;52.370;13.314;2023-12-14T13:45:26;4.20;99.90
20973;DHT22;10645;52.370;13.314;2023-12-14T13:47:55;4.10;99.90
20973;DHT22;10645;52.370;13.314;2023-12-14T13:50:21;4.20;99.90
20973;DHT22;10645;52.370;13.314;2023-12-14T13:52:47;4.20;99.90
20973;DHT22;10645;52.370;13.314;2023-12-14T13:55:13;4.10;99.90
20973;DHT22;10645;52.370;13.314;2023-12-14T13:57:40;4.10;99.90
20973;DHT22;10645;52.370;13.314;2023-12-14T14:00:06;4.10;99.90
20973;DHT22;10645;52.370;13.314;2023-12-14T14:02:32;4.20;99.90
20973;DHT22;10645;52.370;13.314;2023-12-14T14:05:00;4.10;99.90
20973;DHT22;10645;52.370;13.314;2023-12-14T14:07:26;4.10;99.90
20973;DHT22;10645;52.370;13.314;2023-12-14T14:09:52;4.10;99.90
20973;DHT22;10645;52.370;13.314;2023-12-14T14:12:18;4.10;99.90
20973;DHT22;10645;52.370;13.314;2023-12-14T14:14:44;4.10;99.90
20973;DHT22;10645;52.370;13.314;2023-12-14T14:17:11;4.10;99.90
20973;DHT22;10645;52.370;13.314;2023-12-14T14:19:38;4.10;99.90
20973;DHT22;10645;52.370;13.314;2023-12-14T14:22:04;4.10;99.90
20973;DHT22;10645;52.370;13.314;2023-12-14T14:24:30;4.10;99.90
20973;DHT22;10645;52.370;13.314;2023-12-14T14:26:57;4.10;99.90
20973;DHT22;10645;52.370;13.314;2023-12-14T14:29:24;4.10;99.90
20973;DHT22;10645;52.370;13.314;2023-12-14T14:31:50;4.10;99.90
20973;DHT22;10645;52.370;13.314;2023-12-14T14:34:16;4.10;99.90
20973;DHT22;10645;52.370;13.314;2023-12-14T14:36:42;4.10;99.90
20973;DHT22;10645;52.370;13.314;2023-12-14T14:39:10;4.10;99.90
20973;DHT22;10645;52.370;13.314;2023-12-14T14:41:36;4.10;99.90
20973;DHT22;10645;52.370;13.314;2023-12-14T14:44:03;4.10;99.90
20973;DHT22;10645;52.370;13.314;2023-12-14T14:46:29;4.10;99.90
20973;DHT22;10645;52.370;13.314;2023-12-14T14:48:55;4.10;99.90
20973;DHT22;10645;52.370;13.314;2023-12-14T14:51:21;4.10;99.90
20973;DHT22;10645;52.370;13.314;2023-12-14T14:53:48;4.00;99.90
20973;DHT22;10645;52.370;13.314;2023-12-14T14:56:14;4.00;99.90
20973;DHT22;10645;52.370;13.314;2023-12-14T14:58:40;4.00;99.90
20973;DHT22;10645;52.370;13.314;2023-12-14T15:01:07;3.90;99.90
20973;DHT22;10645;52.370;13.314;2023-12-14T15:03:34;3.90;99.90
20973;DHT22;10645;52.370;13.314;2023-12-14T15:06:00;3.80;99.90
20973;DHT22;10645;52.370;13.314;2023-12-14T15:08:26;3.80;99.90
20973;DHT22;10645;52.370;13.314;2023-12-14T15:10:53;3.90;99.90
20973;DHT22;10645;52.370;13.314;2023-12-14T15:13:21;3.90;99.90
20973;DHT22;10645;52.370;13.314;2023-12-14T15:15:48;3.80;99.90
20973;DHT22;10645;52.370;13.314;2023-12-14T15:18:14;3.80;99.90
20973;DHT22;10645;52.370;13.314;2023-12-14T15:20:40;3.80;99.90
20973;DHT22;10645;52.370;13.314;2023-12-14T15:23:08;3.70;99.90
20973;DHT22;10645;52.370;13.314;2023-12-14T15:25:37;3.80;99.90
20973;DHT22;10645;52.370;13.314;2023-12-14T15:28:03;3.70;99.90
20973;DHT22;10645;52.370;13.314;2023-12-14T15:30:29;3.70;99.90
20973;DHT22;10645;52.370;13.314;2023-12-14T15:32:56;3.70;99.90